createdAt,value
2022-08-07T00:03:48.224Z,19.15
2022-08-07T00:13:48.223Z,19.19
2022-08-07T00:23:48.202Z,19.1
2022-08-07T00:33:48.202Z,19
2022-08-07T00:43:59.955Z,18.94
2022-08-07T00:53:50.922Z,18.95
2022-08-07T01:03:55.212Z,19.06
2022-08-07T01:13:55.616Z,19.1
2022-08-07T01:23:48.174Z,19.09
2022-08-07T01:33:53.973Z,19.01
2022-08-07T01:43:48.118Z,18.99
2022-08-07T01:54:00.840Z,19.06
2022-08-07T02:03:49.141Z,19.07
2022-08-07T02:13:57.074Z,19.02
2022-08-07T02:23:49.255Z,18.99
2022-08-07T02:34:02.028Z,18.9
2022-08-07T02:43:49.026Z,18.84
2022-08-07T02:53:48.044Z,18.8
2022-08-07T03:03:49.612Z,18.97
2022-08-07T03:13:49.345Z,18.97
2022-08-07T03:24:18.859Z,18.95
2022-08-07T03:33:48.027Z,18.89
2022-08-07T03:43:57.030Z,18.78
2022-08-07T03:53:50.329Z,18.79
2022-08-07T04:03:50.113Z,18.87
2022-08-07T04:14:09.727Z,18.95
2022-08-07T04:24:02.129Z,18.91
2022-08-07T04:33:54.748Z,18.55
2022-08-07T04:43:53.579Z,18.34
2022-08-07T04:54:02.195Z,18.17
2022-08-07T05:04:00.745Z,18.07
2022-08-07T05:14:45.092Z,17.91
2022-08-07T05:23:47.882Z,17.76
2022-08-07T05:33:51.452Z,17.66
2022-08-07T05:43:49.938Z,17.65
2022-08-07T05:54:08.429Z,17.75
2022-08-07T06:03:53.325Z,17.78
2022-08-07T06:14:11.349Z,17.86
2022-08-07T06:24:39.077Z,17.83
2022-08-07T06:33:47.821Z,17.79
2022-08-07T06:43:59.321Z,17.61
2022-08-07T06:54:12.259Z,17.56
2022-08-07T07:03:55.047Z,17.66
2022-08-07T07:13:56.761Z,17.69
2022-08-07T07:24:06.697Z,17.89
2022-08-07T07:33:48.898Z,17.83
2022-08-07T07:44:14.998Z,17.94
2022-08-07T07:53:51.600Z,17.97
2022-08-07T08:04:06.910Z,18.03
2022-08-07T08:13:53.599Z,18.1
2022-08-07T08:23:47.798Z,18.26
2022-08-07T08:33:49.217Z,18.24
2022-08-07T08:43:50.487Z,18.42
2022-08-07T08:53:47.697Z,18.79
2022-08-07T09:03:49.639Z,19.23
2022-08-07T09:13:47.663Z,19.58
2022-08-07T09:24:29.798Z,19.68
2022-08-07T09:33:53.335Z,19.83
2022-08-07T09:44:05.383Z,20.04
2022-08-07T09:53:50.129Z,20.69
2022-08-07T10:04:04.593Z,20.96
2022-08-07T10:13:55.805Z,21.47
2022-08-07T10:24:04.586Z,22.02
2022-08-07T10:34:05.214Z,22.91
2022-08-07T10:43:47.557Z,22.88
2022-08-07T10:53:47.542Z,22.75
2022-08-07T11:03:51.304Z,23.02
2022-08-07T11:14:42.859Z,23.84
2022-08-07T11:23:48.390Z,22.9
2022-08-07T11:33:53.404Z,22.25
2022-08-07T11:43:55.042Z,22.82
2022-08-07T11:54:00.458Z,23.88
2022-08-07T12:03:47.528Z,25.03
2022-08-07T12:13:47.963Z,25.66
2022-08-07T12:24:06.530Z,25.61
2022-08-07T12:33:56.304Z,24.95
2022-08-07T12:44:01.728Z,24.27
2022-08-07T12:54:02.467Z,23.57
2022-08-07T13:03:53.703Z,23.38
2022-08-07T13:13:49.685Z,23.36
2022-08-07T13:24:00.406Z,24.91
2022-08-07T13:34:29.748Z,25.56
2022-08-07T13:43:52.423Z,25.3
2022-08-07T13:54:00.039Z,24.9
2022-08-07T14:04:05.911Z,25.73
2022-08-07T14:13:47.342Z,25.88
2022-08-07T14:23:59.772Z,26.44
2022-08-07T14:33:47.621Z,24.91
2022-08-07T14:43:55.022Z,25.59
2022-08-07T14:53:49.804Z,25.71
2022-08-07T15:03:51.310Z,24.74
2022-08-07T15:13:47.273Z,24.68
2022-08-07T15:25:03.584Z,24.69
2022-08-07T15:33:47.267Z,24.87
2022-08-07T15:43:53.963Z,24.24
2022-08-07T15:53:51.713Z,24.34
2022-08-07T16:03:54.359Z,24.04
2022-08-07T16:13:58.233Z,23.59
2022-08-07T16:23:53.311Z,23.73
2022-08-07T16:34:00.991Z,23.5
2022-08-07T16:44:02.879Z,23.11
2022-08-07T16:53:56.058Z,22.53
2022-08-07T17:03:57.858Z,22.14
2022-08-07T17:14:18.889Z,22.01
2022-08-07T17:23:47.109Z,21.83
2022-08-07T17:34:10.492Z,21.62
2022-08-07T17:44:01.979Z,21.52
2022-08-07T17:53:52.658Z,21.35
2022-08-07T18:03:54.100Z,21.18
2022-08-07T18:13:47.068Z,21.09
2022-08-07T18:23:50.676Z,20.89
2022-08-07T18:33:55.490Z,20.77
2022-08-07T18:43:49.065Z,20.51
2022-08-07T18:53:48.591Z,20.56
2022-08-07T19:03:47.705Z,20.68
2022-08-07T19:13:50.071Z,20.61
2022-08-07T19:23:57.730Z,20.47
2022-08-07T19:33:46.936Z,20.46
2022-08-07T19:43:49.083Z,20.35
2022-08-07T20:03:46.953Z,20.15
2022-08-07T20:13:46.936Z,19.97
2022-08-07T20:23:47.507Z,19.83
2022-08-07T20:33:46.884Z,19.64
2022-08-07T20:43:47.630Z,19.54
2022-08-07T20:54:02.539Z,19.5
2022-08-07T21:04:01.263Z,19.49
2022-08-07T21:13:57.796Z,19.4
2022-08-07T21:23:49.622Z,19.28
2022-08-07T21:33:46.837Z,19.24
2022-08-07T21:43:47.698Z,19.28
2022-08-07T21:53:52.604Z,19.32
2022-08-07T22:03:46.814Z,19.29
2022-08-07T22:13:50.628Z,19.24
2022-08-07T22:23:46.829Z,19.21
2022-08-07T22:33:53.519Z,19.24
2022-08-07T22:43:46.784Z,19.31
2022-08-07T22:54:05.762Z,19.33
2022-08-07T23:03:57.839Z,19.34
2022-08-07T23:13:48.277Z,19.26
2022-08-07T23:24:04.924Z,19.21
2022-08-07T23:34:20.546Z,19.16
2022-08-07T23:43:46.742Z,19.28
2022-08-07T23:53:50.163Z,19.28
